Jones, Alabama
Current Conditions -  °F | °C
As of 10:55 AM on Tuesday 27 Jan 2015 (Local Time) from K1A9 Reporting Station
Clear Clear  
Wind Chill: 54°   Ceiling: Unl
Heat Index: 54°   Visibility: 10mi
Dew Point: 34°   Wind: 16mph
Humidity: 47%   Direction: 300°WNW
Pressure: 30.03"   Gusts: 21mph
Location:  32.58°N, 86.9°W
Report Text: K1A9 271655Z AUTO 30014G18KT 10SM CLR 12/01 A3003 RMK AO2 T01240013
Loading
Personal Weather Stations






























Interactive Weather Map New forecast layout! Learn more

10-Day Weather Forecast

Advertisements
Track Severe Weather on mobile